General Aviation Weather

Text Reports

Enter one or more of the following location identifiers separated by a space:

Zip Code, Four-Character ICAO or Three-Character IATA airport codes.

METAR - Aviation Routine Weather Report
KRNM - Ramona, California
Updated at 5:29 AM GMT on December 21, 2014 (9:29 PM PST):
SPECI KRNM 210529Z 10004KT 1 1/4SM BR FEW008 SCT025 08/08 A3017 RMK AO2 T00830078
TAF - Terminal Area Forecast
KRNM - Ramona, California
Updated at 5:29 AM GMT on December 21, 2014 (9:29 PM PST):
No TAF is currently available for this location.
Decoded:
No decoded TAF is available.
PIREP - Pilot Weather Report
KRNM - Ramona, California
Updated at 5:29 AM GMT on December 21, 2014 (9:29 PM PST):
No PIREP is currently available for this location.
AIRMET - Airmens Meteorological Information
KRNM - Ramona, California
Updated at 5:29 AM GMT on December 21, 2014 (9:29 PM PST):
No AIRMET is currently available for this location.
SIGMET - Significant Meteorological Information
KRNM - Ramona, California
Updated at 5:29 AM GMT on December 21, 2014 (9:29 PM PST):
No SIGMET is currently available for this location.
NOTAM - Notice to Airmen
KRNM - Ramona, California
Updated at 5:29 AM GMT on December 21, 2014 (9:29 PM PST):
No NOTAM is currently available for this location.
Forecast Area
KRNM - Ramona, California
Updated at 5:29 AM GMT on December 21, 2014 (9:29 PM PST):
No NOTAM is currently available for this location.
Aviation Weather Maps